sensor_id;sensor_type;location;lat;lon;timestamp;P1;durP1;ratioP1;P2;durP2;ratioP2
11865;SDS011;5992;52.744;6.898;2023-04-03T00:01:48;1.57;;;1.03;;
11865;SDS011;5992;52.744;6.898;2023-04-03T00:05:06;1.73;;;1.10;;
11865;SDS011;5992;52.744;6.898;2023-04-03T00:08:18;1.37;;;0.93;;
11865;SDS011;5992;52.744;6.898;2023-04-03T00:11:42;2.23;;;1.20;;
11865;SDS011;5992;52.744;6.898;2023-04-03T00:14:42;0.80;;;0.73;;
11865;SDS011;5992;52.744;6.898;2023-04-03T00:17:55;0.93;;;0.90;;
11865;SDS011;5992;52.744;6.898;2023-04-03T00:20:57;1.53;;;1.17;;
11865;SDS011;5992;52.744;6.898;2023-04-03T00:24:22;1.60;;;0.97;;
11865;SDS011;5992;52.744;6.898;2023-04-03T00:27:22;1.97;;;0.73;;
11865;SDS011;5992;52.744;6.898;2023-04-03T00:30:50;2.13;;;0.80;;
11865;SDS011;5992;52.744;6.898;2023-04-03T00:34:02;2.57;;;0.90;;
11865;SDS011;5992;52.744;6.898;2023-04-03T00:37:17;1.07;;;1.00;;
11865;SDS011;5992;52.744;6.898;2023-04-03T00:40:42;2.10;;;1.37;;
11865;SDS011;5992;52.744;6.898;2023-04-03T00:44:18;1.10;;;0.90;;
11865;SDS011;5992;52.744;6.898;2023-04-03T00:47:44;1.53;;;0.90;;
11865;SDS011;5992;52.744;6.898;2023-04-03T00:51:09;0.87;;;0.87;;
11865;SDS011;5992;52.744;6.898;2023-04-03T00:54:22;2.53;;;1.10;;
11865;SDS011;5992;52.744;6.898;2023-04-03T00:57:46;2.17;;;1.20;;
11865;SDS011;5992;52.744;6.898;2023-04-03T01:01:11;3.10;;;0.80;;
11865;SDS011;5992;52.744;6.898;2023-04-03T01:04:35;1.03;;;0.87;;
11865;SDS011;5992;52.744;6.898;2023-04-03T01:08:02;2.00;;;1.07;;
11865;SDS011;5992;52.744;6.898;2023-04-03T01:11:28;0.73;;;0.73;;
11865;SDS011;5992;52.744;6.898;2023-04-03T01:14:53;3.13;;;0.93;;
11865;SDS011;5992;52.744;6.898;2023-04-03T01:18:17;2.55;;;0.90;;
11865;SDS011;5992;52.744;6.898;2023-04-03T01:21:54;1.40;;;1.00;;
11865;SDS011;5992;52.744;6.898;2023-04-03T01:25:17;4.00;;;1.00;;
11865;SDS011;5992;52.744;6.898;2023-04-03T01:28:41;4.10;;;1.10;;
11865;SDS011;5992;52.744;6.898;2023-04-03T01:32:07;1.83;;;0.60;;
11865;SDS011;5992;52.744;6.898;2023-04-03T01:35:31;1.43;;;0.90;;
11865;SDS011;5992;52.744;6.898;2023-04-03T01:38:57;1.33;;;0.90;;
11865;SDS011;5992;52.744;6.898;2023-04-03T01:42:20;2.37;;;1.23;;
11865;SDS011;5992;52.744;6.898;2023-04-03T01:45:33;0.70;;;0.70;;
11865;SDS011;5992;52.744;6.898;2023-04-03T01:49:00;1.87;;;0.97;;
11865;SDS011;5992;52.744;6.898;2023-04-03T01:52:28;2.20;;;1.13;;
11865;SDS011;5992;52.744;6.898;2023-04-03T01:55:40;2.77;;;1.40;;
11865;SDS011;5992;52.744;6.898;2023-04-03T01:58:52;1.25;;;1.20;;
11865;SDS011;5992;52.744;6.898;2023-04-03T02:01:52;2.17;;;0.93;;
11865;SDS011;5992;52.744;6.898;2023-04-03T02:05:08;0.83;;;0.83;;
11865;SDS011;5992;52.744;6.898;2023-04-03T02:08:19;0.90;;;0.90;;
11865;SDS011;5992;52.744;6.898;2023-04-03T02:11:31;1.77;;;1.10;;
11865;SDS011;5992;52.744;6.898;2023-04-03T02:14:44;1.00;;;0.87;;
11865;SDS011;5992;52.744;6.898;2023-04-03T02:17:56;1.37;;;1.27;;
11865;SDS011;5992;52.744;6.898;2023-04-03T02:20:58;4.15;;;1.05;;
11865;SDS011;5992;52.744;6.898;2023-04-03T02:24:23;3.80;;;1.27;;
11865;SDS011;5992;52.744;6.898;2023-04-03T02:27:26;2.40;;;1.20;;
11865;SDS011;5992;52.744;6.898;2023-04-03T02:30:38;5.30;;;1.07;;
11865;SDS011;5992;52.744;6.898;2023-04-03T02:33:50;3.40;;;1.23;;
11865;SDS011;5992;52.744;6.898;2023-04-03T02:37:03;0.87;;;0.77;;
11865;SDS011;5992;52.744;6.898;2023-04-03T02:40:27;1.10;;;0.97;;
11865;SDS011;5992;52.744;6.898;2023-04-03T02:43:39;1.77;;;1.00;;
11865;SDS011;5992;52.744;6.898;2023-04-03T02:46:51;2.60;;;0.93;;
11865;SDS011;5992;52.744;6.898;2023-04-03T02:50:06;1.67;;;0.90;;
11865;SDS011;5992;52.744;6.898;2023-04-03T02:53:19;1.80;;;1.03;;
11865;SDS011;5992;52.744;6.898;2023-04-03T02:56:45;2.93;;;1.30;;
11865;SDS011;5992;52.744;6.898;2023-04-03T02:59:57;1.23;;;1.13;;
11865;SDS011;5992;52.744;6.898;2023-04-03T03:03:09;3.40;;;1.60;;
11865;SDS011;5992;52.744;6.898;2023-04-03T03:06:21;3.03;;;1.30;;
11865;SDS011;5992;52.744;6.898;2023-04-03T03:09:35;2.23;;;1.13;;
11865;SDS011;5992;52.744;6.898;2023-04-03T03:12:51;1.73;;;1.10;;
11865;SDS011;5992;52.744;6.898;2023-04-03T03:16:03;6.27;;;1.20;;
11865;SDS011;5992;52.744;6.898;2023-04-03T03:19:16;5.00;;;1.33;;
11865;SDS011;5992;52.744;6.898;2023-04-03T03:22:28;1.07;;;0.80;;
11865;SDS011;5992;52.744;6.898;2023-04-03T03:25:42;0.90;;;0.90;;
11865;SDS011;5992;52.744;6.898;2023-04-03T03:29:07;1.67;;;1.30;;
11865;SDS011;5992;52.744;6.898;2023-04-03T03:32:20;0.93;;;0.83;;
11865;SDS011;5992;52.744;6.898;2023-04-03T03:35:32;1.37;;;1.00;;
11865;SDS011;5992;52.744;6.898;2023-04-03T03:38:59;1.53;;;1.33;;
11865;SDS011;5992;52.744;6.898;2023-04-03T03:42:12;2.37;;;1.33;;
11865;SDS011;5992;52.744;6.898;2023-04-03T03:45:37;1.90;;;1.33;;
11865;SDS011;5992;52.744;6.898;2023-04-03T03:48:50;1.53;;;1.07;;
11865;SDS011;5992;52.744;6.898;2023-04-03T03:52:02;3.83;;;1.43;;
11865;SDS011;5992;52.744;6.898;2023-04-03T03:55:14;4.43;;;1.30;;
11865;SDS011;5992;52.744;6.898;2023-04-03T03:58:28;2.00;;;1.20;;
11865;SDS011;5992;52.744;6.898;2023-04-03T04:01:53;1.30;;;1.10;;
11865;SDS011;5992;52.744;6.898;2023-04-03T04:05:06;1.63;;;1.40;;
11865;SDS011;5992;52.744;6.898;2023-04-03T04:08:30;2.43;;;1.13;;
11865;SDS011;5992;52.744;6.898;2023-04-03T04:11:43;1.50;;;1.27;;
11865;SDS011;5992;52.744;6.898;2023-04-03T04:14:56;3.07;;;0.97;;
11865;SDS011;5992;52.744;6.898;2023-04-03T04:18:21;3.30;;;1.55;;
11865;SDS011;5992;52.744;6.898;2023-04-03T04:21:45;2.40;;;1.10;;
11865;SDS011;5992;52.744;6.898;2023-04-03T04:24:57;2.83;;;1.30;;
11865;SDS011;5992;52.744;6.898;2023-04-03T04:28:09;2.77;;;1.40;;
11865;SDS011;5992;52.744;6.898;2023-04-03T04:31:23;1.30;;;1.00;;
11865;SDS011;5992;52.744;6.898;2023-04-03T04:34:48;3.67;;;1.47;;
11865;SDS011;5992;52.744;6.898;2023-04-03T04:38:01;1.33;;;1.07;;
11865;SDS011;5992;52.744;6.898;2023-04-03T04:41:25;2.55;;;1.40;;
11865;SDS011;5992;52.744;6.898;2023-04-03T04:44:41;2.00;;;1.50;;
11865;SDS011;5992;52.744;6.898;2023-04-03T04:47:56;3.50;;;0.90;;
11865;SDS011;5992;52.744;6.898;2023-04-03T04:51:20;3.07;;;0.90;;
11865;SDS011;5992;52.744;6.898;2023-04-03T04:54:47;3.93;;;1.57;;
11865;SDS011;5992;52.744;6.898;2023-04-03T04:58:00;4.05;;;1.20;;
11865;SDS011;5992;52.744;6.898;2023-04-03T05:01:12;2.47;;;1.50;;
11865;SDS011;5992;52.744;6.898;2023-04-03T05:04:26;2.20;;;1.30;;
11865;SDS011;5992;52.744;6.898;2023-04-03T05:07:51;2.83;;;1.10;;
11865;SDS011;5992;52.744;6.898;2023-04-03T05:11:03;3.70;;;1.73;;
11865;SDS011;5992;52.744;6.898;2023-04-03T05:14:04;4.37;;;1.20;;
11865;SDS011;5992;52.744;6.898;2023-04-03T05:17:17;1.67;;;1.10;;
11865;SDS011;5992;52.744;6.898;2023-04-03T05:20:32;2.60;;;1.30;;
11865;SDS011;5992;52.744;6.898;2023-04-03T05:23:56;3.23;;;2.33;;
11865;SDS011;5992;52.744;6.898;2023-04-03T05:27:08;1.83;;;1.20;;
11865;SDS011;5992;52.744;6.898;2023-04-03T05:30:21;1.77;;;1.20;;
11865;SDS011;5992;52.744;6.898;2023-04-03T05:33:36;4.90;;;1.47;;
11865;SDS011;5992;52.744;6.898;2023-04-03T05:36:50;2.53;;;1.40;;
11865;SDS011;5992;52.744;6.898;2023-04-03T05:40:17;2.90;;;1.20;;
11865;SDS011;5992;52.744;6.898;2023-04-03T05:43:30;1.90;;;1.70;;
11865;SDS011;5992;52.744;6.898;2023-04-03T05:46:57;2.77;;;1.30;;
11865;SDS011;5992;52.744;6.898;2023-04-03T05:50:22;5.47;;;1.83;;
11865;SDS011;5992;52.744;6.898;2023-04-03T05:53:39;1.93;;;1.30;;
11865;SDS011;5992;52.744;6.898;2023-04-03T05:57:04;2.33;;;1.40;;
11865;SDS011;5992;52.744;6.898;2023-04-03T06:00:16;3.10;;;1.50;;
11865;SDS011;5992;52.744;6.898;2023-04-03T06:03:29;2.75;;;1.25;;
11865;SDS011;5992;52.744;6.898;2023-04-03T06:06:45;3.67;;;1.53;;
11865;SDS011;5992;52.744;6.898;2023-04-03T06:10:11;3.23;;;1.20;;
11865;SDS011;5992;52.744;6.898;2023-04-03T06:13:35;1.50;;;1.07;;
11865;SDS011;5992;52.744;6.898;2023-04-03T06:16:47;4.50;;;1.50;;
11865;SDS011;5992;52.744;6.898;2023-04-03T06:19:50;2.50;;;1.20;;
11865;SDS011;5992;52.744;6.898;2023-04-03T06:23:02;2.35;;;1.20;;
11865;SDS011;5992;52.744;6.898;2023-04-03T06:26:16;1.57;;;1.27;;
11865;SDS011;5992;52.744;6.898;2023-04-03T06:29:40;3.70;;;1.50;;
11865;SDS011;5992;52.744;6.898;2023-04-03T06:32:40;5.50;;;1.50;;
11865;SDS011;5992;52.744;6.898;2023-04-03T06:35:57;2.37;;;1.40;;
11865;SDS011;5992;52.744;6.898;2023-04-03T06:39:09;3.33;;;1.20;;
11865;SDS011;5992;52.744;6.898;2023-04-03T06:42:35;2.90;;;1.50;;
11865;SDS011;5992;52.744;6.898;2023-04-03T06:45:47;3.73;;;1.30;;
11865;SDS011;5992;52.744;6.898;2023-04-03T06:49:00;1.67;;;1.10;;
11865;SDS011;5992;52.744;6.898;2023-04-03T06:52:00;1.63;;;1.27;;
11865;SDS011;5992;52.744;6.898;2023-04-03T06:55:12;1.37;;;1.07;;
11865;SDS011;5992;52.744;6.898;2023-04-03T06:58:15;1.80;;;1.30;;
11865;SDS011;5992;52.744;6.898;2023-04-03T07:01:39;2.97;;;1.30;;
11865;SDS011;5992;52.744;6.898;2023-04-03T07:04:51;2.03;;;1.23;;
11865;SDS011;5992;52.744;6.898;2023-04-03T07:08:04;1.80;;;1.27;;
11865;SDS011;5992;52.744;6.898;2023-04-03T07:11:16;4.67;;;1.43;;
11865;SDS011;5992;52.744;6.898;2023-04-03T07:14:44;4.23;;;1.60;;
11865;SDS011;5992;52.744;6.898;2023-04-03T07:17:56;1.90;;;1.10;;
11865;SDS011;5992;52.744;6.898;2023-04-03T07:21:08;1.30;;;1.00;;
11865;SDS011;5992;52.744;6.898;2023-04-03T07:24:20;2.87;;;1.27;;
11865;SDS011;5992;52.744;6.898;2023-04-03T07:27:33;1.70;;;1.03;;
11865;SDS011;5992;52.744;6.898;2023-04-03T07:30:46;4.43;;;1.10;;
11865;SDS011;5992;52.744;6.898;2023-04-03T07:34:11;1.47;;;1.17;;
11865;SDS011;5992;52.744;6.898;2023-04-03T07:37:23;3.73;;;1.13;;
11865;SDS011;5992;52.744;6.898;2023-04-03T07:40:36;3.15;;;1.20;;
11865;SDS011;5992;52.744;6.898;2023-04-03T07:43:48;1.53;;;0.67;;
11865;SDS011;5992;52.744;6.898;2023-04-03T07:47:02;1.73;;;1.10;;
11865;SDS011;5992;52.744;6.898;2023-04-03T07:50:15;1.27;;;0.90;;
11865;SDS011;5992;52.744;6.898;2023-04-03T07:53:30;3.33;;;1.10;;
11865;SDS011;5992;52.744;6.898;2023-04-03T07:56:42;5.20;;;1.60;;
11865;SDS011;5992;52.744;6.898;2023-04-03T07:59:55;1.65;;;0.90;;
11865;SDS011;5992;52.744;6.898;2023-04-03T08:03:10;2.20;;;1.15;;
11865;SDS011;5992;52.744;6.898;2023-04-03T08:06:22;1.25;;;0.65;;
11865;SDS011;5992;52.744;6.898;2023-04-03T08:09:35;4.10;;;1.10;;
11865;SDS011;5992;52.744;6.898;2023-04-03T08:12:50;2.23;;;0.80;;
11865;SDS011;5992;52.744;6.898;2023-04-03T08:16:11;2.23;;;1.00;;
11865;SDS011;5992;52.744;6.898;2023-04-03T08:19:26;2.10;;;1.00;;
11865;SDS011;5992;52.744;6.898;2023-04-03T08:22:51;1.80;;;0.90;;
11865;SDS011;5992;52.744;6.898;2023-04-03T08:25:51;0.85;;;0.85;;
11865;SDS011;5992;52.744;6.898;2023-04-03T08:29:07;1.10;;;0.83;;
11865;SDS011;5992;52.744;6.898;2023-04-03T08:32:07;2.77;;;1.07;;
11865;SDS011;5992;52.744;6.898;2023-04-03T08:35:20;0.73;;;0.70;;
11865;SDS011;5992;52.744;6.898;2023-04-03T08:38:33;1.20;;;1.03;;
11865;SDS011;5992;52.744;6.898;2023-04-03T08:41:57;3.47;;;0.90;;
11865;SDS011;5992;52.744;6.898;2023-04-03T08:45:09;2.67;;;0.87;;
11865;SDS011;5992;52.744;6.898;2023-04-03T08:48:34;1.97;;;1.10;;
11865;SDS011;5992;52.744;6.898;2023-04-03T08:51:48;0.93;;;0.77;;
11865;SDS011;5992;52.744;6.898;2023-04-03T08:55:16;2.80;;;0.87;;
11865;SDS011;5992;52.744;6.898;2023-04-03T08:58:41;0.70;;;0.70;;
11865;SDS011;5992;52.744;6.898;2023-04-03T09:02:13;0.60;;;0.50;;
11865;SDS011;5992;52.744;6.898;2023-04-03T09:05:29;0.77;;;0.77;;
11865;SDS011;5992;52.744;6.898;2023-04-03T09:08:59;1.20;;;0.70;;
11865;SDS011;5992;52.744;6.898;2023-04-03T09:12:13;1.77;;;1.03;;
11865;SDS011;5992;52.744;6.898;2023-04-03T09:15:37;3.03;;;0.87;;
11865;SDS011;5992;52.744;6.898;2023-04-03T09:18:38;1.97;;;0.90;;
11865;SDS011;5992;52.744;6.898;2023-04-03T09:22:03;2.87;;;1.20;;
11865;SDS011;5992;52.744;6.898;2023-04-03T09:25:17;0.90;;;0.90;;
11865;SDS011;5992;52.744;6.898;2023-04-03T09:28:40;0.90;;;0.90;;
11865;SDS011;5992;52.744;6.898;2023-04-03T09:31:52;1.07;;;0.80;;
11865;SDS011;5992;52.744;6.898;2023-04-03T09:35:23;1.43;;;0.93;;
11865;SDS011;5992;52.744;6.898;2023-04-03T09:38:34;1.87;;;1.17;;
11865;SDS011;5992;52.744;6.898;2023-04-03T09:41:58;0.80;;;0.70;;
11865;SDS011;5992;52.744;6.898;2023-04-03T09:45:18;0.70;;;0.70;;
11865;SDS011;5992;52.744;6.898;2023-04-03T09:48:34;2.30;;;0.63;;
11865;SDS011;5992;52.744;6.898;2023-04-03T09:51:34;2.47;;;0.93;;
11865;SDS011;5992;52.744;6.898;2023-04-03T09:55:02;0.87;;;0.73;;
11865;SDS011;5992;52.744;6.898;2023-04-03T09:58:27;1.30;;;0.70;;
11865;SDS011;5992;52.744;6.898;2023-04-03T10:01:57;3.73;;;0.83;;
11865;SDS011;5992;52.744;6.898;2023-04-03T10:05:25;2.60;;;1.00;;
11865;SDS011;5992;52.744;6.898;2023-04-03T10:08:37;2.90;;;0.80;;
11865;SDS011;5992;52.744;6.898;2023-04-03T10:11:59;1.63;;;0.80;;
11865;SDS011;5992;52.744;6.898;2023-04-03T10:15:13;2.00;;;1.00;;
11865;SDS011;5992;52.744;6.898;2023-04-03T10:18:38;1.50;;;0.85;;
11865;SDS011;5992;52.744;6.898;2023-04-03T10:21:50;0.70;;;0.70;;
11865;SDS011;5992;52.744;6.898;2023-04-03T10:25:15;1.90;;;0.80;;
11865;SDS011;5992;52.744;6.898;2023-04-03T10:28:27;1.97;;;1.10;;
11865;SDS011;5992;52.744;6.898;2023-04-03T10:31:53;1.43;;;0.67;;
11865;SDS011;5992;52.744;6.898;2023-04-03T10:35:07;1.07;;;0.60;;
11865;SDS011;5992;52.744;6.898;2023-04-03T10:38:37;1.30;;;0.60;;
11865;SDS011;5992;52.744;6.898;2023-04-03T10:41:52;1.75;;;0.75;;
11865;SDS011;5992;52.744;6.898;2023-04-03T10:45:19;1.70;;;0.60;;
11865;SDS011;5992;52.744;6.898;2023-04-03T10:48:38;1.07;;;0.80;;
11865;SDS011;5992;52.744;6.898;2023-04-03T10:52:02;1.07;;;0.80;;
11865;SDS011;5992;52.744;6.898;2023-04-03T10:55:16;1.83;;;0.83;;
11865;SDS011;5992;52.744;6.898;2023-04-03T10:58:43;2.80;;;1.03;;
11865;SDS011;5992;52.744;6.898;2023-04-03T11:01:55;1.13;;;0.80;;
11865;SDS011;5992;52.744;6.898;2023-04-03T11:05:25;1.73;;;0.77;;
11865;SDS011;5992;52.744;6.898;2023-04-03T11:08:35;2.60;;;0.77;;
11865;SDS011;5992;52.744;6.898;2023-04-03T11:12:00;1.03;;;0.83;;
11865;SDS011;5992;52.744;6.898;2023-04-03T11:15:12;1.07;;;0.67;;
11865;SDS011;5992;52.744;6.898;2023-04-03T11:18:37;1.37;;;1.00;;
11865;SDS011;5992;52.744;6.898;2023-04-03T11:21:53;0.80;;;0.80;;
11865;SDS011;5992;52.744;6.898;2023-04-03T11:25:18;1.90;;;0.93;;
11865;SDS011;5992;52.744;6.898;2023-04-03T11:28:29;1.70;;;1.07;;
11865;SDS011;5992;52.744;6.898;2023-04-03T11:31:49;2.27;;;0.90;;
11865;SDS011;5992;52.744;6.898;2023-04-03T11:34:59;0.90;;;0.60;;
11865;SDS011;5992;52.744;6.898;2023-04-03T11:38:25;1.23;;;0.87;;
11865;SDS011;5992;52.744;6.898;2023-04-03T11:41:37;2.33;;;1.10;;
11865;SDS011;5992;52.744;6.898;2023-04-03T11:44:49;2.65;;;1.20;;
11865;SDS011;5992;52.744;6.898;2023-04-03T11:48:02;1.75;;;1.00;;
11865;SDS011;5992;52.744;6.898;2023-04-03T11:54:51;1.40;;;1.05;;
11865;SDS011;5992;52.744;6.898;2023-04-03T11:58:16;1.97;;;0.93;;
11865;SDS011;5992;52.744;6.898;2023-04-03T12:05:24;1.55;;;0.85;;
11865;SDS011;5992;52.744;6.898;2023-04-03T12:08:43;3.70;;;0.80;;
11865;SDS011;5992;52.744;6.898;2023-04-03T12:19:00;1.80;;;1.10;;
11865;SDS011;5992;52.744;6.898;2023-04-03T12:22:13;1.70;;;0.83;;
11865;SDS011;5992;52.744;6.898;2023-04-03T12:25:46;1.83;;;0.93;;
11865;SDS011;5992;52.744;6.898;2023-04-03T12:28:58;2.20;;;1.00;;
11865;SDS011;5992;52.744;6.898;2023-04-03T12:32:25;3.20;;;0.90;;
11865;SDS011;5992;52.744;6.898;2023-04-03T12:35:39;1.30;;;1.10;;
11865;SDS011;5992;52.744;6.898;2023-04-03T12:39:05;3.83;;;1.17;;
11865;SDS011;5992;52.744;6.898;2023-04-03T12:42:21;0.90;;;0.80;;
11865;SDS011;5992;52.744;6.898;2023-04-03T12:45:47;1.47;;;1.20;;
11865;SDS011;5992;52.744;6.898;2023-04-03T12:48:59;2.30;;;1.13;;
11865;SDS011;5992;52.744;6.898;2023-04-03T12:52:28;1.95;;;1.20;;
11865;SDS011;5992;52.744;6.898;2023-04-03T12:55:41;0.70;;;0.70;;
11865;SDS011;5992;52.744;6.898;2023-04-03T12:58:54;2.25;;;0.95;;
11865;SDS011;5992;52.744;6.898;2023-04-03T13:02:10;1.43;;;0.90;;
11865;SDS011;5992;52.744;6.898;2023-04-03T13:05:34;2.03;;;1.10;;
11865;SDS011;5992;52.744;6.898;2023-04-03T13:08:51;1.23;;;0.93;;
11865;SDS011;5992;52.744;6.898;2023-04-03T13:12:17;1.50;;;0.90;;
11865;SDS011;5992;52.744;6.898;2023-04-03T13:15:18;1.00;;;0.75;;
11865;SDS011;5992;52.744;6.898;2023-04-03T13:18:41;1.50;;;0.90;;
11865;SDS011;5992;52.744;6.898;2023-04-03T13:21:54;1.00;;;0.90;;
11865;SDS011;5992;52.744;6.898;2023-04-03T13:25:18;1.50;;;1.20;;
11865;SDS011;5992;52.744;6.898;2023-04-03T13:28:31;1.53;;;0.93;;
11865;SDS011;5992;52.744;6.898;2023-04-03T13:31:56;1.50;;;0.90;;
11865;SDS011;5992;52.744;6.898;2023-04-03T13:35:31;0.90;;;0.90;;
11865;SDS011;5992;52.744;6.898;2023-04-03T13:39:01;2.33;;;1.07;;
11865;SDS011;5992;52.744;6.898;2023-04-03T13:42:22;2.03;;;0.80;;
11865;SDS011;5992;52.744;6.898;2023-04-03T13:45:54;2.10;;;1.23;;
11865;SDS011;5992;52.744;6.898;2023-04-03T13:49:16;0.93;;;0.87;;
11865;SDS011;5992;52.744;6.898;2023-04-03T13:52:41;1.65;;;1.15;;
11865;SDS011;5992;52.744;6.898;2023-04-03T13:55:55;1.55;;;1.10;;
11865;SDS011;5992;52.744;6.898;2023-04-03T13:59:23;1.67;;;0.67;;
11865;SDS011;5992;52.744;6.898;2023-04-03T14:02:35;1.23;;;0.97;;
11865;SDS011;5992;52.744;6.898;2023-04-03T14:05:59;2.00;;;1.00;;
11865;SDS011;5992;52.744;6.898;2023-04-03T14:09:11;3.77;;;1.13;;
11865;SDS011;5992;52.744;6.898;2023-04-03T14:12:35;3.40;;;1.20;;
11865;SDS011;5992;52.744;6.898;2023-04-03T14:15:48;0.90;;;0.80;;
11865;SDS011;5992;52.744;6.898;2023-04-03T14:19:20;1.95;;;1.40;;
11865;SDS011;5992;52.744;6.898;2023-04-03T14:22:32;2.80;;;0.90;;
11865;SDS011;5992;52.744;6.898;2023-04-03T14:25:56;2.37;;;1.40;;
11865;SDS011;5992;52.744;6.898;2023-04-03T14:28:56;1.90;;;0.80;;
11865;SDS011;5992;52.744;6.898;2023-04-03T14:32:12;1.85;;;0.95;;
11865;SDS011;5992;52.744;6.898;2023-04-03T14:35:27;1.20;;;1.20;;
11865;SDS011;5992;52.744;6.898;2023-04-03T14:38:51;1.40;;;1.10;;
11865;SDS011;5992;52.744;6.898;2023-04-03T14:42:03;1.00;;;0.83;;
11865;SDS011;5992;52.744;6.898;2023-04-03T14:45:16;1.40;;;1.20;;
11865;SDS011;5992;52.744;6.898;2023-04-03T14:48:29;1.70;;;1.07;;
11865;SDS011;5992;52.744;6.898;2023-04-03T14:51:54;2.45;;;1.10;;
11865;SDS011;5992;52.744;6.898;2023-04-03T14:55:06;1.47;;;0.80;;
11865;SDS011;5992;52.744;6.898;2023-04-03T14:58:31;1.80;;;1.00;;
11865;SDS011;5992;52.744;6.898;2023-04-03T15:01:31;1.10;;;1.00;;
11865;SDS011;5992;52.744;6.898;2023-04-03T15:04:44;3.60;;;1.10;;
11865;SDS011;5992;52.744;6.898;2023-04-03T15:07:57;0.90;;;0.90;;
11865;SDS011;5992;52.744;6.898;2023-04-03T15:11:21;1.87;;;1.13;;
11865;SDS011;5992;52.744;6.898;2023-04-03T15:14:21;1.50;;;1.40;;
11865;SDS011;5992;52.744;6.898;2023-04-03T15:17:45;1.83;;;1.33;;
11865;SDS011;5992;52.744;6.898;2023-04-03T15:20:58;4.87;;;1.70;;
11865;SDS011;5992;52.744;6.898;2023-04-03T15:24:26;1.57;;;1.07;;
11865;SDS011;5992;52.744;6.898;2023-04-03T15:27:26;2.37;;;1.20;;
11865;SDS011;5992;52.744;6.898;2023-04-03T15:30:50;3.50;;;1.60;;
11865;SDS011;5992;52.744;6.898;2023-04-03T15:34:05;1.77;;;1.40;;
11865;SDS011;5992;52.744;6.898;2023-04-03T15:37:18;2.10;;;1.00;;
11865;SDS011;5992;52.744;6.898;2023-04-03T15:40:31;1.97;;;1.20;;
11865;SDS011;5992;52.744;6.898;2023-04-03T15:43:43;3.70;;;1.50;;
11865;SDS011;5992;52.744;6.898;2023-04-03T15:46:44;1.70;;;1.10;;
11865;SDS011;5992;52.744;6.898;2023-04-03T15:50:08;2.47;;;1.40;;
11865;SDS011;5992;52.744;6.898;2023-04-03T15:53:10;2.30;;;1.30;;
11865;SDS011;5992;52.744;6.898;2023-04-03T15:56:35;1.60;;;1.20;;
11865;SDS011;5992;52.744;6.898;2023-04-03T15:59:35;1.75;;;1.20;;
11865;SDS011;5992;52.744;6.898;2023-04-03T16:02:35;1.80;;;1.27;;
11865;SDS011;5992;52.744;6.898;2023-04-03T16:05:59;3.13;;;1.33;;
11865;SDS011;5992;52.744;6.898;2023-04-03T16:09:12;3.07;;;1.50;;
11865;SDS011;5992;52.744;6.898;2023-04-03T16:12:53;1.60;;;1.50;;
11865;SDS011;5992;52.744;6.898;2023-04-03T16:16:21;1.93;;;1.47;;
11865;SDS011;5992;52.744;6.898;2023-04-03T16:20:07;1.80;;;1.50;;
11865;SDS011;5992;52.744;6.898;2023-04-03T16:23:34;1.30;;;1.20;;
11865;SDS011;5992;52.744;6.898;2023-04-03T16:27:16;1.30;;;0.97;;
11865;SDS011;5992;52.744;6.898;2023-04-03T16:30:35;2.13;;;1.20;;
11865;SDS011;5992;52.744;6.898;2023-04-03T16:33:47;2.53;;;1.47;;
11865;SDS011;5992;52.744;6.898;2023-04-03T16:36:59;1.30;;;1.20;;
11865;SDS011;5992;52.744;6.898;2023-04-03T16:40:11;1.50;;;1.33;;
11865;SDS011;5992;52.744;6.898;2023-04-03T16:43:28;1.30;;;1.20;;
11865;SDS011;5992;52.744;6.898;2023-04-03T16:46:52;1.40;;;1.30;;
11865;SDS011;5992;52.744;6.898;2023-04-03T16:49:52;2.20;;;1.50;;
11865;SDS011;5992;52.744;6.898;2023-04-03T16:53:05;2.35;;;1.50;;
11865;SDS011;5992;52.744;6.898;2023-04-03T16:56:05;1.97;;;1.50;;
11865;SDS011;5992;52.744;6.898;2023-04-03T16:59:22;0.80;;;0.80;;
11865;SDS011;5992;52.744;6.898;2023-04-03T17:02:34;1.27;;;1.07;;
11865;SDS011;5992;52.744;6.898;2023-04-03T17:05:47;1.57;;;1.23;;
11865;SDS011;5992;52.744;6.898;2023-04-03T17:08:48;1.17;;;0.93;;
11865;SDS011;5992;52.744;6.898;2023-04-03T17:12:11;1.07;;;0.97;;
11865;SDS011;5992;52.744;6.898;2023-04-03T17:15:25;1.57;;;1.30;;
11865;SDS011;5992;52.744;6.898;2023-04-03T17:18:49;3.10;;;1.80;;
11865;SDS011;5992;52.744;6.898;2023-04-03T17:22:01;2.20;;;1.20;;
11865;SDS011;5992;52.744;6.898;2023-04-03T17:25:26;1.27;;;1.13;;
11865;SDS011;5992;52.744;6.898;2023-04-03T17:28:26;1.63;;;1.20;;
11865;SDS011;5992;52.744;6.898;2023-04-03T17:31:40;1.53;;;1.13;;
11865;SDS011;5992;52.744;6.898;2023-04-03T17:34:52;2.23;;;1.50;;
11865;SDS011;5992;52.744;6.898;2023-04-03T17:38:04;1.73;;;1.13;;
11865;SDS011;5992;52.744;6.898;2023-04-03T17:41:05;1.37;;;1.07;;
11865;SDS011;5992;52.744;6.898;2023-04-03T17:44:28;1.87;;;1.53;;
11865;SDS011;5992;52.744;6.898;2023-04-03T17:47:30;1.35;;;1.25;;
11865;SDS011;5992;52.744;6.898;2023-04-03T17:50:54;2.10;;;1.33;;
11865;SDS011;5992;52.744;6.898;2023-04-03T17:53:54;1.27;;;1.17;;
11865;SDS011;5992;52.744;6.898;2023-04-03T17:57:22;1.20;;;1.10;;
11865;SDS011;5992;52.744;6.898;2023-04-03T18:00:33;4.15;;;1.65;;
11865;SDS011;5992;52.744;6.898;2023-04-03T18:04:03;1.37;;;1.20;;
11865;SDS011;5992;52.744;6.898;2023-04-03T18:07:14;1.20;;;1.00;;
11865;SDS011;5992;52.744;6.898;2023-04-03T18:10:39;1.20;;;1.10;;
11865;SDS011;5992;52.744;6.898;2023-04-03T18:13:38;2.27;;;1.20;;
11865;SDS011;5992;52.744;6.898;2023-04-03T18:16:51;1.45;;;1.00;;
11865;SDS011;5992;52.744;6.898;2023-04-03T18:20:05;1.20;;;1.10;;
11865;SDS011;5992;52.744;6.898;2023-04-03T18:23:29;1.87;;;1.37;;
11865;SDS011;5992;52.744;6.898;2023-04-03T18:26:41;1.00;;;1.00;;
11865;SDS011;5992;52.744;6.898;2023-04-03T18:30:06;2.03;;;1.50;;
11865;SDS011;5992;52.744;6.898;2023-04-03T18:33:18;1.87;;;1.33;;
11865;SDS011;5992;52.744;6.898;2023-04-03T18:36:43;2.17;;;1.60;;
11865;SDS011;5992;52.744;6.898;2023-04-03T18:39:56;2.97;;;1.60;;
11865;SDS011;5992;52.744;6.898;2023-04-03T18:43:21;2.10;;;1.40;;
11865;SDS011;5992;52.744;6.898;2023-04-03T18:46:36;1.30;;;1.20;;
11865;SDS011;5992;52.744;6.898;2023-04-03T18:50:01;2.30;;;1.70;;
11865;SDS011;5992;52.744;6.898;2023-04-03T18:53:14;3.07;;;1.53;;
11865;SDS011;5992;52.744;6.898;2023-04-03T18:56:39;2.57;;;1.30;;
11865;SDS011;5992;52.744;6.898;2023-04-03T18:59:51;1.50;;;1.40;;
11865;SDS011;5992;52.744;6.898;2023-04-03T19:03:19;3.63;;;1.57;;
11865;SDS011;5992;52.744;6.898;2023-04-03T19:06:31;1.80;;;1.50;;
11865;SDS011;5992;52.744;6.898;2023-04-03T19:09:56;2.33;;;1.67;;
11865;SDS011;5992;52.744;6.898;2023-04-03T19:13:09;2.00;;;1.40;;
11865;SDS011;5992;52.744;6.898;2023-04-03T19:16:33;2.17;;;1.70;;
11865;SDS011;5992;52.744;6.898;2023-04-03T19:19:45;3.07;;;1.83;;
11865;SDS011;5992;52.744;6.898;2023-04-03T19:22:57;2.40;;;1.90;;
11865;SDS011;5992;52.744;6.898;2023-04-03T19:25:58;3.65;;;1.60;;
11865;SDS011;5992;52.744;6.898;2023-04-03T19:29:23;2.70;;;2.05;;
11865;SDS011;5992;52.744;6.898;2023-04-03T19:32:23;3.63;;;1.70;;
11865;SDS011;5992;52.744;6.898;2023-04-03T19:35:48;5.45;;;2.80;;
11865;SDS011;5992;52.744;6.898;2023-04-03T19:38:48;4.67;;;2.83;;
11865;SDS011;5992;52.744;6.898;2023-04-03T19:42:01;7.87;;;2.27;;
11865;SDS011;5992;52.744;6.898;2023-04-03T19:45:14;3.80;;;2.27;;
11865;SDS011;5992;52.744;6.898;2023-04-03T19:48:26;3.33;;;2.03;;
11865;SDS011;5992;52.744;6.898;2023-04-03T19:51:26;2.30;;;2.10;;
11865;SDS011;5992;52.744;6.898;2023-04-03T19:54:38;2.17;;;1.97;;
11865;SDS011;5992;52.744;6.898;2023-04-03T19:57:39;5.45;;;2.25;;
11865;SDS011;5992;52.744;6.898;2023-04-03T20:01:07;7.70;;;2.95;;
11865;SDS011;5992;52.744;6.898;2023-04-03T20:04:32;2.53;;;2.00;;
11865;SDS011;5992;52.744;6.898;2023-04-03T20:07:32;2.93;;;1.73;;
11865;SDS011;5992;52.744;6.898;2023-04-03T20:10:45;2.23;;;2.13;;
11865;SDS011;5992;52.744;6.898;2023-04-03T20:13:49;3.75;;;1.85;;
11865;SDS011;5992;52.744;6.898;2023-04-03T20:17:14;4.75;;;1.75;;